createdAt,value
2022-12-04T00:00:33.722Z,25.03
2022-12-04T00:03:00.613Z,26.53
2022-12-04T00:05:27.586Z,25.80
2022-12-04T00:07:54.560Z,25.90
2022-12-04T00:10:21.553Z,24.87
2022-12-04T00:12:48.411Z,24.83
2022-12-04T00:15:25.269Z,27.43
2022-12-04T00:17:53.447Z,24.33
2022-12-04T00:20:20.494Z,26.37
2022-12-04T00:22:47.384Z,24.73
2022-12-04T00:25:14.278Z,26.73
2022-12-04T00:27:41.171Z,25.80
2022-12-04T00:30:08.789Z,26.60
2022-12-04T00:32:35.999Z,26.63
2022-12-04T00:35:03.007Z,26.20
2022-12-04T00:37:29.977Z,26.30
2022-12-04T00:39:57.159Z,27.10
2022-12-04T00:42:24.269Z,25.97
2022-12-04T00:44:51.202Z,25.47
2022-12-04T00:47:18.161Z,26.00
2022-12-04T00:49:45.047Z,26.70
2022-12-04T00:52:13.899Z,26.37
2022-12-04T00:54:40.797Z,25.97
2022-12-04T00:57:08.015Z,26.20
2022-12-04T00:59:34.932Z,27.57
2022-12-04T01:02:01.799Z,25.37
2022-12-04T01:04:28.784Z,25.63
2022-12-04T01:06:58.064Z,26.73
2022-12-04T01:09:28.531Z,28.20
2022-12-04T01:11:55.394Z,25.80
2022-12-04T01:14:23.271Z,26.57
2022-12-04T01:16:50.233Z,25.87
2022-12-04T01:19:17.154Z,24.57
2022-12-04T01:21:43.998Z,24.97
2022-12-04T01:24:10.951Z,25.60
2022-12-04T01:26:37.850Z,25.43
2022-12-04T01:29:04.904Z,24.77
2022-12-04T01:31:31.972Z,25.07
2022-12-04T01:34:02.058Z,25.13
2022-12-04T01:36:29.103Z,24.93
2022-12-04T01:38:56.792Z,24.20
2022-12-04T01:41:27.889Z,24.70
2022-12-04T01:44:19.045Z,22.77
2022-12-04T01:46:50.818Z,22.87
2022-12-04T01:49:23.766Z,21.33
2022-12-04T01:51:56.249Z,22.17
2022-12-04T01:54:28.806Z,20.83
2022-12-04T01:57:01.858Z,22.23
2022-12-04T01:59:36.650Z,23.37
2022-12-04T02:02:16.048Z,24.47
2022-12-04T02:04:43.930Z,27.17
2022-12-04T02:07:11.275Z,26.77
2022-12-04T02:09:39.688Z,23.67
2022-12-04T02:12:36.965Z,23.70
2022-12-04T02:15:15.916Z,23.27
2022-12-04T02:17:51.679Z,23.67
2022-12-04T02:20:33.731Z,25.43
2022-12-04T02:23:18.799Z,23.73
2022-12-04T02:26:18.941Z,23.93
2022-12-04T02:29:04.897Z,23.97
2022-12-04T02:31:43.067Z,24.97
2022-12-04T02:34:25.781Z,23.47
2022-12-04T02:37:14.386Z,23.60
2022-12-04T02:39:48.679Z,23.83
2022-12-04T02:42:25.729Z,24.50
2022-12-04T02:45:08.405Z,22.87
2022-12-04T02:47:37.051Z,24.03
2022-12-04T02:50:09.425Z,24.87
2022-12-04T02:52:41.006Z,24.77
2022-12-04T02:55:24.679Z,23.70
2022-12-04T02:57:55.902Z,24.43
2022-12-04T03:00:22.846Z,23.77
2022-12-04T03:03:07.624Z,26.13
2022-12-04T03:05:41.281Z,25.43
2022-12-04T03:08:14.477Z,24.70
2022-12-04T03:10:48.895Z,25.77
2022-12-04T03:13:30.744Z,24.73
2022-12-04T03:16:07.122Z,24.73
2022-12-04T03:18:39.568Z,23.60
2022-12-04T03:21:12.164Z,25.30
2022-12-04T03:23:48.802Z,24.83
2022-12-04T03:26:15.582Z,26.27
2022-12-04T03:28:58.870Z,24.97
2022-12-04T03:32:01.305Z,25.43
2022-12-04T03:34:51.654Z,25.67
2022-12-04T03:37:24.186Z,27.77
2022-12-04T03:40:07.977Z,28.13
2022-12-04T03:42:48.054Z,26.07
2022-12-04T03:45:38.316Z,26.00
2022-12-04T03:48:23.396Z,27.07
2022-12-04T03:51:10.803Z,27.27
2022-12-04T03:53:42.935Z,27.93
2022-12-04T03:56:17.223Z,27.93
2022-12-04T03:58:49.019Z,27.27
2022-12-04T04:01:20.425Z,28.77
2022-12-04T04:03:51.976Z,28.83
2022-12-04T04:06:30.717Z,28.83
2022-12-04T04:09:02.659Z,30.40
2022-12-04T04:11:36.130Z,29.30
2022-12-04T04:14:26.362Z,29.20
2022-12-04T04:17:20.761Z,28.60
2022-12-04T04:20:12.677Z,29.53
2022-12-04T04:22:59.686Z,29.63
2022-12-04T04:25:28.430Z,27.67
2022-12-04T04:27:58.562Z,29.60
2022-12-04T04:30:27.516Z,30.83
2022-12-04T04:33:16.315Z,29.77
2022-12-04T04:36:17.848Z,28.63
2022-12-04T04:39:02.464Z,27.70
2022-12-04T04:41:48.266Z,29.37
2022-12-04T04:44:46.530Z,27.83
2022-12-04T04:47:20.277Z,27.53
2022-12-04T04:49:49.698Z,27.87
2022-12-04T04:52:20.309Z,29.20
2022-12-04T04:54:47.710Z,29.47
2022-12-04T04:57:25.167Z,27.80
2022-12-04T04:59:52.098Z,29.07
2022-12-04T05:02:19.046Z,28.67
2022-12-04T05:04:45.897Z,29.17
2022-12-04T05:07:12.786Z,28.43
2022-12-04T05:09:41.460Z,28.93
2022-12-04T05:12:09.196Z,29.23
2022-12-04T05:14:36.060Z,28.87
2022-12-04T05:17:12.169Z,28.17
2022-12-04T05:19:56.573Z,26.80
2022-12-04T05:22:28.785Z,28.33
2022-12-04T05:24:56.035Z,30.33
2022-12-04T05:27:24.762Z,28.03
2022-12-04T05:29:56.248Z,26.63
2022-12-04T05:32:24.947Z,29.37
2022-12-04T05:34:53.338Z,30.13
2022-12-04T05:37:20.758Z,28.70
2022-12-04T05:39:47.842Z,28.37
2022-12-04T05:42:15.065Z,28.07
2022-12-04T05:44:41.934Z,27.73
2022-12-04T05:47:10.015Z,27.30
2022-12-04T05:49:37.369Z,28.23
2022-12-04T05:52:05.679Z,28.57
2022-12-04T05:54:32.683Z,29.03
2022-12-04T05:56:59.820Z,29.07
2022-12-04T05:59:26.769Z,28.47
2022-12-04T06:01:53.915Z,29.37
2022-12-04T06:04:21.188Z,30.10
2022-12-04T06:06:48.224Z,28.30
2022-12-04T06:09:15.091Z,29.03
2022-12-04T06:11:43.182Z,28.97
2022-12-04T06:14:13.431Z,29.27
2022-12-04T06:16:43.467Z,28.43
2022-12-04T06:19:14.417Z,28.50
2022-12-04T06:21:42.905Z,29.73
2022-12-04T06:24:14.255Z,28.50
2022-12-04T06:27:03.851Z,27.73
2022-12-04T06:29:28.416Z,30.63
2022-12-04T06:31:55.324Z,31.73
2022-12-04T06:34:22.291Z,28.63
2022-12-04T06:36:49.230Z,30.40
2022-12-04T06:39:19.019Z,29.57
2022-12-04T06:41:47.642Z,28.60
2022-12-04T06:44:17.777Z,30.00
2022-12-04T06:46:47.256Z,30.27
2022-12-04T06:49:14.950Z,29.30
2022-12-04T06:51:42.004Z,31.50
2022-12-04T06:54:10.455Z,30.77
2022-12-04T06:56:37.438Z,29.37
2022-12-04T06:59:05.115Z,30.90
2022-12-04T07:01:34.410Z,30.60
2022-12-04T07:04:04.107Z,29.57
2022-12-04T07:06:37.757Z,31.47
2022-12-04T07:09:15.118Z,27.23
2022-12-04T07:11:43.251Z,30.90
2022-12-04T07:14:11.951Z,31.23
2022-12-04T07:16:41.414Z,29.63
2022-12-04T07:19:10.838Z,30.43
2022-12-04T07:21:37.797Z,31.13
2022-12-04T07:24:05.185Z,29.50
2022-12-04T07:26:32.295Z,30.20
2022-12-04T07:28:59.814Z,29.80
2022-12-04T07:31:28.535Z,31.03
2022-12-04T07:33:55.656Z,31.10
2022-12-04T07:36:23.546Z,30.30
2022-12-04T07:38:51.478Z,31.77
2022-12-04T07:41:19.297Z,29.80
2022-12-04T07:43:46.905Z,30.63
2022-12-04T07:46:20.463Z,30.17
2022-12-04T07:48:47.505Z,30.63
2022-12-04T07:51:20.201Z,30.37
2022-12-04T07:53:47.678Z,30.73
2022-12-04T07:56:15.531Z,30.67
2022-12-04T07:58:42.800Z,32.33
2022-12-04T08:01:12.526Z,29.97
2022-12-04T08:03:47.205Z,30.17
2022-12-04T08:06:15.389Z,31.13
2022-12-04T08:08:42.457Z,30.20
2022-12-04T08:11:14.140Z,29.33
2022-12-04T08:13:43.133Z,31.67
2022-12-04T08:16:11.367Z,29.93
2022-12-04T08:18:39.966Z,30.03
2022-12-04T08:21:15.871Z,30.90
2022-12-04T08:23:45.197Z,31.00
2022-12-04T08:26:15.331Z,29.20
2022-12-04T08:28:42.345Z,31.57
2022-12-04T08:31:13.856Z,29.10
2022-12-04T08:33:42.003Z,30.40
2022-12-04T08:36:11.430Z,32.07
2022-12-04T08:38:39.206Z,31.90
2022-12-04T08:41:12.674Z,30.93
2022-12-04T08:43:43.056Z,30.90
2022-12-04T08:46:18.001Z,29.70
2022-12-04T08:48:48.277Z,32.30
2022-12-04T08:51:21.032Z,31.20
2022-12-04T08:53:59.399Z,31.33
2022-12-04T08:56:31.032Z,32.33
2022-12-04T08:59:00.169Z,31.40
2022-12-04T09:01:30.679Z,29.57
2022-12-04T09:03:59.888Z,30.00
2022-12-04T09:06:28.867Z,30.77
2022-12-04T09:08:57.351Z,30.40
2022-12-04T09:11:28.184Z,31.37
2022-12-04T09:13:56.011Z,29.53
2022-12-04T09:16:24.688Z,31.70
2022-12-04T09:18:55.625Z,30.70
2022-12-04T09:21:24.755Z,29.60
2022-12-04T09:23:54.938Z,29.50
2022-12-04T09:26:28.476Z,30.40
2022-12-04T09:28:56.308Z,28.87
2022-12-04T09:31:26.973Z,30.17
2022-12-04T09:33:54.632Z,30.60
2022-12-04T09:36:21.990Z,29.20
2022-12-04T09:38:51.886Z,32.07
2022-12-04T09:41:44.385Z,30.80
2022-12-04T09:44:29.733Z,31.47
2022-12-04T09:47:15.055Z,31.67
2022-12-04T09:50:00.191Z,30.17
2022-12-04T09:52:40.328Z,29.33
2022-12-04T09:55:42.926Z,30.73
2022-12-04T09:58:46.909Z,29.77
2022-12-04T10:01:24.464Z,30.53
2022-12-04T10:03:57.728Z,30.10
2022-12-04T10:06:41.204Z,30.63
2022-12-04T10:09:19.753Z,31.10
2022-12-04T10:12:07.206Z,30.93
2022-12-04T10:15:15.839Z,32.77
2022-12-04T10:17:59.695Z,31.70
2022-12-04T10:20:58.019Z,32.27
2022-12-04T10:24:10.123Z,31.03
2022-12-04T10:26:45.157Z,29.90
2022-12-04T10:29:26.049Z,31.63
2022-12-04T10:31:55.871Z,31.87
2022-12-04T10:34:31.295Z,32.23
2022-12-04T10:37:11.618Z,31.43
2022-12-04T10:39:49.374Z,33.23
2022-12-04T10:42:36.089Z,33.30
2022-12-04T10:45:07.284Z,33.50
2022-12-04T10:47:35.406Z,32.20
2022-12-04T10:50:21.830Z,31.23
2022-12-04T10:52:49.425Z,31.77
2022-12-04T10:55:32.891Z,32.63
2022-12-04T10:58:03.106Z,33.20
2022-12-04T11:00:35.451Z,30.83
2022-12-04T11:03:09.338Z,30.47
2022-12-04T11:05:55.493Z,31.20
2022-12-04T11:08:36.690Z,32.83
2022-12-04T11:11:13.648Z,33.67
2022-12-04T11:13:42.621Z,32.23
2022-12-04T11:16:33.375Z,31.70
2022-12-04T11:19:19.988Z,31.00
2022-12-04T11:21:50.379Z,31.10
2022-12-04T11:24:24.289Z,32.90
2022-12-04T11:26:55.139Z,32.20
2022-12-04T11:29:31.321Z,31.20
2022-12-04T11:32:06.948Z,30.93
2022-12-04T11:34:40.767Z,32.07
2022-12-04T11:37:20.783Z,30.90
2022-12-04T11:39:51.075Z,29.83
2022-12-04T11:42:36.651Z,31.20
2022-12-04T11:45:20.960Z,31.10
2022-12-04T11:47:56.383Z,30.93
2022-12-04T11:50:53.121Z,30.00
2022-12-04T11:53:45.930Z,31.50
2022-12-04T11:56:35.109Z,29.97
2022-12-04T11:59:13.232Z,30.63
2022-12-04T12:02:05.033Z,31.10
2022-12-04T12:04:43.175Z,27.63
2022-12-04T12:07:37.968Z,28.83
2022-12-04T12:10:05.193Z,29.57
2022-12-04T12:13:13.962Z,29.43
2022-12-04T12:15:55.829Z,27.77
2022-12-04T12:18:42.189Z,28.40
2022-12-04T12:21:23.994Z,27.57
2022-12-04T12:24:30.432Z,29.40
2022-12-04T12:27:34.800Z,27.73
2022-12-04T12:30:10.634Z,28.87
2022-12-04T12:33:10.756Z,26.00
2022-12-04T12:35:54.310Z,26.70
2022-12-04T12:38:40.061Z,25.13
2022-12-04T12:41:18.183Z,22.50
2022-12-04T12:44:02.958Z,23.70
2022-12-04T12:46:44.166Z,22.53
2022-12-04T12:49:35.862Z,19.53
2022-12-04T12:52:30.840Z,19.07
2022-12-04T12:55:21.399Z,18.63
2022-12-04T12:58:00.179Z,17.83
2022-12-04T13:00:32.622Z,18.47
2022-12-04T13:03:33.665Z,16.87
2022-12-04T13:06:07.485Z,18.50
2022-12-04T13:09:02.001Z,15.77
2022-12-04T13:11:31.004Z,16.30
2022-12-04T13:14:03.320Z,16.90
2022-12-04T13:16:36.151Z,16.63
2022-12-04T13:19:09.237Z,16.80
2022-12-04T13:21:55.277Z,17.50
2022-12-04T13:24:41.225Z,18.10
2022-12-04T13:27:17.130Z,17.40
2022-12-04T13:30:09.082Z,19.00
2022-12-04T13:33:07.064Z,19.77
2022-12-04T13:36:02.917Z,18.37
2022-12-04T13:38:46.398Z,19.73
2022-12-04T13:41:20.939Z,18.77
2022-12-04T13:43:55.222Z,19.30
2022-12-04T13:46:40.298Z,20.07
2022-12-04T13:49:28.866Z,20.67
2022-12-04T13:52:00.531Z,19.23
2022-12-04T13:54:37.386Z,19.23
2022-12-04T13:57:16.491Z,20.97
2022-12-04T13:59:44.066Z,18.37
2022-12-04T14:02:35.353Z,16.70
2022-12-04T14:05:09.215Z,16.53
2022-12-04T14:07:42.786Z,17.97
2022-12-04T14:10:19.087Z,17.30
2022-12-04T14:13:00.358Z,15.13
2022-12-04T14:15:35.146Z,16.07
2022-12-04T14:18:05.130Z,16.43
2022-12-04T14:20:33.542Z,16.93
2022-12-04T14:23:22.739Z,15.90
2022-12-04T14:25:51.591Z,17.10
2022-12-04T14:28:25.063Z,15.53
2022-12-04T14:31:10.559Z,15.53
2022-12-04T14:33:52.630Z,16.73
2022-12-04T14:36:43.484Z,18.57
2022-12-04T14:39:34.796Z,16.97
2022-12-04T14:42:18.226Z,17.17
2022-12-04T14:44:51.571Z,18.07
2022-12-04T14:47:29.271Z,16.80
2022-12-04T14:50:32.523Z,18.67
2022-12-04T14:53:22.367Z,19.20
2022-12-04T14:56:30.043Z,19.93
2022-12-04T14:58:58.506Z,18.63
2022-12-04T15:01:37.297Z,19.73
2022-12-04T15:04:30.822Z,21.67
2022-12-04T15:07:01.234Z,18.17
2022-12-04T15:09:47.521Z,18.90
2022-12-04T15:12:33.896Z,19.43
2022-12-04T15:15:12.945Z,18.50
2022-12-04T15:17:41.973Z,18.97
2022-12-04T15:20:17.013Z,19.83
2022-12-04T15:22:46.002Z,19.77
2022-12-04T15:25:19.744Z,19.73
2022-12-04T15:27:49.375Z,21.30
2022-12-04T15:30:19.630Z,20.97
2022-12-04T15:32:49.814Z,21.20
2022-12-04T15:35:29.681Z,19.47
2022-12-04T15:38:00.590Z,21.27
2022-12-04T15:40:30.126Z,19.03
2022-12-04T15:43:17.069Z,20.37
2022-12-04T15:45:45.106Z,20.53
2022-12-04T15:48:25.056Z,20.33
2022-12-04T15:51:05.158Z,22.30
2022-12-04T15:53:37.284Z,21.93
2022-12-04T15:56:16.440Z,21.90
2022-12-04T15:58:58.164Z,22.83
2022-12-04T16:01:28.046Z,21.23
2022-12-04T16:03:56.281Z,21.83
2022-12-04T16:06:29.339Z,22.00
2022-12-04T16:09:12.591Z,21.87
2022-12-04T16:11:42.974Z,23.33
2022-12-04T16:14:12.945Z,23.00
2022-12-04T16:16:50.118Z,23.13
2022-12-04T16:19:31.605Z,24.40
2022-12-04T16:22:04.617Z,24.10
2022-12-04T16:24:34.684Z,22.03
2022-12-04T16:27:14.711Z,23.63
2022-12-04T16:29:41.713Z,23.30
2022-12-04T16:32:12.833Z,23.60
2022-12-04T16:34:42.934Z,23.17
2022-12-04T16:37:14.918Z,24.00
2022-12-04T16:39:41.914Z,24.33
2022-12-04T16:42:24.693Z,22.30
2022-12-04T16:44:53.484Z,20.70
2022-12-04T16:47:23.552Z,22.50
2022-12-04T16:49:53.641Z,21.07
2022-12-04T16:52:22.635Z,22.30
2022-12-04T16:54:50.605Z,20.70
2022-12-04T16:57:17.500Z,20.97
2022-12-04T16:59:44.467Z,21.80
2022-12-04T17:02:21.365Z,23.10
2022-12-04T17:04:51.534Z,22.73
2022-12-04T17:07:28.660Z,20.57
2022-12-04T17:09:58.781Z,20.30
2022-12-04T17:12:28.962Z,20.63
2022-12-04T17:14:59.170Z,20.70
2022-12-04T17:17:26.554Z,20.33
2022-12-04T17:19:56.520Z,21.67
2022-12-04T17:22:28.709Z,21.70
2022-12-04T17:24:59.202Z,20.00
2022-12-04T17:27:28.407Z,21.57
2022-12-04T17:29:56.128Z,21.20
2022-12-04T17:32:24.248Z,19.93
2022-12-04T17:34:52.530Z,19.23
2022-12-04T17:37:20.562Z,19.57
2022-12-04T17:39:50.583Z,20.43
2022-12-04T17:42:20.195Z,20.50
2022-12-04T17:44:50.334Z,20.67
2022-12-04T17:47:23.537Z,21.13
2022-12-04T17:49:53.531Z,20.53
2022-12-04T17:52:23.475Z,21.13
2022-12-04T17:54:51.529Z,20.50
2022-12-04T17:57:22.526Z,21.93
2022-12-04T17:59:51.873Z,21.77
2022-12-04T18:02:18.920Z,21.77
2022-12-04T18:04:48.898Z,21.70
2022-12-04T18:07:17.906Z,19.53
2022-12-04T18:09:47.940Z,19.47
2022-12-04T18:12:17.886Z,19.27
2022-12-04T18:14:45.892Z,18.83
2022-12-04T18:17:17.827Z,18.83
2022-12-04T18:19:45.814Z,18.43
2022-12-04T18:22:15.857Z,17.67
2022-12-04T18:24:45.965Z,18.23
2022-12-04T18:27:15.962Z,18.43
2022-12-04T18:29:44.998Z,18.17
2022-12-04T18:32:14.996Z,18.20
2022-12-04T18:34:42.039Z,18.80
2022-12-04T18:37:12.029Z,19.80
2022-12-04T18:39:42.088Z,21.30
2022-12-04T18:42:09.012Z,21.90
2022-12-04T18:44:36.972Z,21.23
2022-12-04T18:47:07.646Z,22.13
2022-12-04T18:49:38.018Z,21.57
2022-12-04T18:52:07.904Z,21.90
2022-12-04T18:54:37.910Z,22.57
2022-12-04T18:57:05.855Z,20.57
2022-12-04T18:59:33.851Z,19.10
2022-12-04T19:02:00.865Z,19.33
2022-12-04T19:04:31.886Z,19.40
2022-12-04T19:07:01.943Z,19.83
2022-12-04T19:10:09.009Z,19.17
2022-12-04T19:12:20.936Z,18.53
2022-12-04T19:14:54.125Z,18.17
2022-12-04T19:17:24.290Z,18.50
2022-12-04T19:19:51.282Z,18.63
2022-12-04T19:22:20.253Z,18.33
2022-12-04T19:24:50.302Z,19.23
2022-12-04T19:27:18.156Z,19.77
2022-12-04T19:29:47.930Z,18.17
2022-12-04T19:32:18.007Z,18.27
2022-12-04T19:34:49.351Z,17.67
2022-12-04T19:37:18.791Z,18.43
2022-12-04T19:39:48.305Z,17.87
2022-12-04T19:42:18.370Z,18.03
2022-12-04T19:44:49.674Z,18.53
2022-12-04T19:47:19.998Z,17.67
2022-12-04T19:49:48.229Z,17.87
2022-12-04T19:52:18.283Z,17.70
2022-12-04T19:54:48.333Z,17.97
2022-12-04T19:57:18.307Z,18.37
2022-12-04T19:59:46.988Z,18.53
2022-12-04T20:02:17.293Z,17.57
2022-12-04T20:04:46.325Z,17.30
2022-12-04T20:07:16.348Z,17.10
2022-12-04T20:09:52.164Z,18.20
2022-12-04T20:12:25.719Z,16.80
2022-12-04T20:14:55.619Z,18.30
2022-12-04T20:17:25.035Z,18.03
2022-12-04T20:19:54.218Z,18.13
2022-12-04T20:22:24.617Z,17.70
2022-12-04T20:24:51.591Z,17.53
2022-12-04T20:27:21.588Z,17.43
2022-12-04T20:29:50.611Z,18.63
2022-12-04T20:32:17.463Z,17.80
2022-12-04T20:34:47.514Z,20.27
2022-12-04T20:37:17.557Z,18.97
2022-12-04T20:39:47.579Z,18.67
2022-12-04T20:42:15.889Z,17.50
2022-12-04T20:44:44.803Z,17.13
2022-12-04T20:47:13.766Z,18.30
2022-12-04T20:49:43.752Z,18.53
2022-12-04T20:52:11.249Z,17.97
2022-12-04T20:54:41.551Z,18.53
2022-12-04T20:57:09.365Z,18.30
2022-12-04T20:59:36.363Z,17.70
2022-12-04T21:02:03.334Z,17.33
2022-12-04T21:04:30.187Z,19.53
2022-12-04T21:06:57.772Z,20.57
2022-12-04T21:09:25.149Z,20.97
2022-12-04T21:11:54.552Z,20.60
2022-12-04T21:14:47.024Z,19.33
2022-12-04T21:17:18.866Z,21.17
2022-12-04T21:19:47.458Z,20.93
2022-12-04T21:22:14.900Z,22.90
2022-12-04T21:24:42.347Z,21.53
2022-12-04T21:27:12.424Z,20.67
2022-12-04T21:29:43.751Z,22.83
2022-12-04T21:32:10.595Z,22.37
2022-12-04T21:34:37.555Z,23.67
2022-12-04T21:37:04.502Z,22.60
2022-12-04T21:39:31.443Z,24.43
2022-12-04T21:42:17.042Z,22.07
2022-12-04T21:44:44.042Z,22.20
2022-12-04T21:47:10.949Z,22.57
2022-12-04T21:49:37.912Z,24.03
2022-12-04T21:52:04.870Z,23.40
2022-12-04T21:54:31.831Z,24.13
2022-12-04T21:56:58.881Z,22.43
2022-12-04T21:59:26.470Z,24.00
2022-12-04T22:01:54.736Z,24.20
2022-12-04T22:04:22.690Z,23.17
2022-12-04T22:06:49.972Z,22.60
2022-12-04T22:09:17.088Z,22.87
2022-12-04T22:11:45.768Z,24.10
2022-12-04T22:14:13.732Z,22.97
2022-12-04T22:16:43.469Z,23.43
2022-12-04T22:19:12.133Z,25.10
2022-12-04T22:21:39.841Z,23.47
2022-12-04T22:24:07.377Z,24.83
2022-12-04T22:26:34.311Z,23.40
2022-12-04T22:29:01.190Z,24.10
2022-12-04T22:31:30.151Z,25.03
2022-12-04T22:33:59.503Z,24.13
2022-12-04T22:36:31.727Z,23.70
2022-12-04T22:39:16.217Z,23.13
2022-12-04T22:41:43.218Z,23.57
2022-12-04T22:44:11.153Z,24.00
2022-12-04T22:46:41.327Z,23.57
2022-12-04T22:49:10.502Z,24.67
2022-12-04T22:51:38.355Z,22.77
2022-12-04T22:54:08.079Z,22.63
2022-12-04T22:56:36.052Z,24.80
2022-12-04T22:59:13.415Z,23.83
2022-12-04T23:01:42.440Z,25.80
2022-12-04T23:04:10.315Z,25.37
2022-12-04T23:06:40.403Z,26.47
2022-12-04T23:09:13.001Z,25.30
2022-12-04T23:11:43.122Z,24.43
2022-12-04T23:14:15.045Z,26.10
2022-12-04T23:16:45.126Z,25.63
2022-12-04T23:19:18.311Z,24.13
2022-12-04T23:21:53.571Z,23.03
2022-12-04T23:24:25.903Z,23.63
2022-12-04T23:26:58.876Z,23.77
2022-12-04T23:29:52.295Z,24.60
2022-12-04T23:32:18.973Z,22.30
2022-12-04T23:34:47.958Z,22.67
2022-12-04T23:37:20.891Z,21.93
2022-12-04T23:39:48.961Z,22.53
2022-12-04T23:42:19.021Z,22.47
2022-12-04T23:44:48.982Z,23.63
2022-12-04T23:47:19.283Z,25.00
2022-12-04T23:49:46.500Z,25.27
2022-12-04T23:52:14.477Z,25.33
2022-12-04T23:54:42.469Z,25.27
2022-12-04T23:57:12.496Z,25.63
2022-12-04T23:59:45.662Z,24.43
